sensor_id;sensor_type;location;lat;lon;timestamp;temperature;humidity
5476;DHT22;2760;50.000;9.194;2023-05-27T00:01:14;14.70;96.30
5476;DHT22;2760;50.000;9.194;2023-05-27T00:03:41;14.70;96.50
5476;DHT22;2760;50.000;9.194;2023-05-27T00:06:08;12.40;96.10
5476;DHT22;2760;50.000;9.194;2023-05-27T00:08:36;14.50;96.80
5476;DHT22;2760;50.000;9.194;2023-05-27T00:11:03;14.20;96.60
5476;DHT22;2760;50.000;9.194;2023-05-27T00:13:31;14.10;97.10
5476;DHT22;2760;50.000;9.194;2023-05-27T00:15:58;14.30;97.10
5476;DHT22;2760;50.000;9.194;2023-05-27T00:18:27;14.20;97.60
5476;DHT22;2760;50.000;9.194;2023-05-27T00:20:54;14.10;97.40
5476;DHT22;2760;50.000;9.194;2023-05-27T00:23:21;13.90;97.40
5476;DHT22;2760;50.000;9.194;2023-05-27T00:25:48;15.20;98.10
5476;DHT22;2760;50.000;9.194;2023-05-27T00:30:44;13.90;96.80
5476;DHT22;2760;50.000;9.194;2023-05-27T00:33:11;13.90;96.50
5476;DHT22;2760;50.000;9.194;2023-05-27T00:35:40;14.00;95.90
5476;DHT22;2760;50.000;9.194;2023-05-27T00:38:07;14.10;95.90
5476;DHT22;2760;50.000;9.194;2023-05-27T00:40:35;14.10;96.00
5476;DHT22;2760;50.000;9.194;2023-05-27T00:45:32;13.80;96.60
5476;DHT22;2760;50.000;9.194;2023-05-27T00:48:02;13.90;96.40
5476;DHT22;2760;50.000;9.194;2023-05-27T00:50:30;14.00;96.20
5476;DHT22;2760;50.000;9.194;2023-05-27T00:53:00;13.60;96.60
5476;DHT22;2760;50.000;9.194;2023-05-27T00:55:28;13.50;96.60
5476;DHT22;2760;50.000;9.194;2023-05-27T01:05:21;13.90;95.50
5476;DHT22;2760;50.000;9.194;2023-05-27T01:08:11;14.10;94.90
5476;DHT22;2760;50.000;9.194;2023-05-27T01:10:49;11.80;93.90
5476;DHT22;2760;50.000;9.194;2023-05-27T01:13:20;12.30;93.80
5476;DHT22;2760;50.000;9.194;2023-05-27T01:15:53;13.90;94.80
5476;DHT22;2760;50.000;9.194;2023-05-27T01:18:22;13.80;95.10
5476;DHT22;2760;50.000;9.194;2023-05-27T01:20:53;13.80;95.40
5476;DHT22;2760;50.000;9.194;2023-05-27T01:23:26;13.70;95.30
5476;DHT22;2760;50.000;9.194;2023-05-27T01:25:56;13.60;95.50
5476;DHT22;2760;50.000;9.194;2023-05-27T01:28:23;13.90;94.60
5476;DHT22;2760;50.000;9.194;2023-05-27T01:30:55;14.10;94.20
5476;DHT22;2760;50.000;9.194;2023-05-27T01:33:26;14.20;93.70
5476;DHT22;2760;50.000;9.194;2023-05-27T01:36:01;14.30;93.60
5476;DHT22;2760;50.000;9.194;2023-05-27T01:38:33;14.20;93.30
5476;DHT22;2760;50.000;9.194;2023-05-27T01:41:01;14.30;93.30
5476;DHT22;2760;50.000;9.194;2023-05-27T01:43:28;14.00;93.70
5476;DHT22;2760;50.000;9.194;2023-05-27T01:45:57;14.00;94.00
5476;DHT22;2760;50.000;9.194;2023-05-27T01:48:24;13.90;93.70
5476;DHT22;2760;50.000;9.194;2023-05-27T01:55:48;13.40;94.40
5476;DHT22;2760;50.000;9.194;2023-05-27T02:03:12;13.00;95.10
5476;DHT22;2760;50.000;9.194;2023-05-27T02:13:05;12.70;95.40
5476;DHT22;2760;50.000;9.194;2023-05-27T02:15:33;12.70;95.30
5476;DHT22;2760;50.000;9.194;2023-05-27T02:18:02;12.60;95.50
5476;DHT22;2760;50.000;9.194;2023-05-27T02:20:31;12.70;95.50
5476;DHT22;2760;50.000;9.194;2023-05-27T02:23:00;13.00;96.10
5476;DHT22;2760;50.000;9.194;2023-05-27T02:25:28;13.20;96.20
5476;DHT22;2760;50.000;9.194;2023-05-27T02:27:55;12.50;95.40
5476;DHT22;2760;50.000;9.194;2023-05-27T02:30:24;14.30;96.60
5476;DHT22;2760;50.000;9.194;2023-05-27T02:32:51;12.50;95.90
5476;DHT22;2760;50.000;9.194;2023-05-27T02:35:18;12.30;96.10
5476;DHT22;2760;50.000;9.194;2023-05-27T02:37:45;14.40;97.70
5476;DHT22;2760;50.000;9.194;2023-05-27T02:40:20;12.30;96.10
5476;DHT22;2760;50.000;9.194;2023-05-27T02:45:17;12.30;96.00
5476;DHT22;2760;50.000;9.194;2023-05-27T02:47:46;12.20;96.80
5476;DHT22;2760;50.000;9.194;2023-05-27T02:50:14;12.10;96.80
5476;DHT22;2760;50.000;9.194;2023-05-27T02:52:41;12.10;96.20
5476;DHT22;2760;50.000;9.194;2023-05-27T02:55:08;12.20;95.80
5476;DHT22;2760;50.000;9.194;2023-05-27T02:57:36;12.10;96.30
5476;DHT22;2760;50.000;9.194;2023-05-27T03:00:04;13.80;96.50
5476;DHT22;2760;50.000;9.194;2023-05-27T03:05:05;12.10;95.70
5476;DHT22;2760;50.000;9.194;2023-05-27T03:07:32;12.00;96.30
5476;DHT22;2760;50.000;9.194;2023-05-27T03:10:00;11.80;96.10
5476;DHT22;2760;50.000;9.194;2023-05-27T03:12:28;14.40;97.60
5476;DHT22;2760;50.000;9.194;2023-05-27T03:17:22;11.50;96.80
5476;DHT22;2760;50.000;9.194;2023-05-27T03:19:49;11.40;96.90
5476;DHT22;2760;50.000;9.194;2023-05-27T03:22:21;11.30;97.00
5476;DHT22;2760;50.000;9.194;2023-05-27T03:27:17;11.40;96.80
5476;DHT22;2760;50.000;9.194;2023-05-27T03:29:45;11.40;96.70
5476;DHT22;2760;50.000;9.194;2023-05-27T03:32:14;11.50;96.70
5476;DHT22;2760;50.000;9.194;2023-05-27T03:39:55;11.40;97.00
5476;DHT22;2760;50.000;9.194;2023-05-27T03:42:24;11.40;96.90
5476;DHT22;2760;50.000;9.194;2023-05-27T03:44:51;11.40;96.90
5476;DHT22;2760;50.000;9.194;2023-05-27T03:47:18;11.50;96.80
5476;DHT22;2760;50.000;9.194;2023-05-27T03:49:48;11.40;96.90
5476;DHT22;2760;50.000;9.194;2023-05-27T03:52:15;12.40;97.60
5476;DHT22;2760;50.000;9.194;2023-05-27T03:54:43;12.90;97.70
5476;DHT22;2760;50.000;9.194;2023-05-27T03:57:12;14.20;98.20
5476;DHT22;2760;50.000;9.194;2023-05-27T03:59:39;11.70;96.40
5476;DHT22;2760;50.000;9.194;2023-05-27T04:04:35;11.70;96.50
5476;DHT22;2760;50.000;9.194;2023-05-27T04:07:02;11.80;96.20
5476;DHT22;2760;50.000;9.194;2023-05-27T04:11:58;11.90;95.70
5476;DHT22;2760;50.000;9.194;2023-05-27T04:14:28;11.90;96.10
5476;DHT22;2760;50.000;9.194;2023-05-27T04:24:19;12.30;95.30
5476;DHT22;2760;50.000;9.194;2023-05-27T04:26:47;12.50;94.70
5476;DHT22;2760;50.000;9.194;2023-05-27T04:29:16;12.90;93.90
5476;DHT22;2760;50.000;9.194;2023-05-27T04:31:46;12.90;94.10
5476;DHT22;2760;50.000;9.194;2023-05-27T04:34:18;13.40;93.30
5476;DHT22;2760;50.000;9.194;2023-05-27T04:36:46;13.50;93.40
5476;DHT22;2760;50.000;9.194;2023-05-27T04:39:16;13.50;93.50
5476;DHT22;2760;50.000;9.194;2023-05-27T04:41:46;13.50;93.60
5476;DHT22;2760;50.000;9.194;2023-05-27T04:44:19;13.70;93.20
5476;DHT22;2760;50.000;9.194;2023-05-27T04:46:55;13.80;92.50
5476;DHT22;2760;50.000;9.194;2023-05-27T04:49:22;13.80;93.40
5476;DHT22;2760;50.000;9.194;2023-05-27T04:51:49;13.90;92.50
5476;DHT22;2760;50.000;9.194;2023-05-27T04:54:19;13.80;93.00
5476;DHT22;2760;50.000;9.194;2023-05-27T04:56:47;13.90;93.20
5476;DHT22;2760;50.000;9.194;2023-05-27T04:59:21;16.30;93.90
5476;DHT22;2760;50.000;9.194;2023-05-27T05:01:48;14.30;92.90
5476;DHT22;2760;50.000;9.194;2023-05-27T05:04:41;14.20;92.40
5476;DHT22;2760;50.000;9.194;2023-05-27T05:07:09;14.30;92.20
5476;DHT22;2760;50.000;9.194;2023-05-27T05:09:40;14.40;92.80
5476;DHT22;2760;50.000;9.194;2023-05-27T05:12:18;14.40;92.30
5476;DHT22;2760;50.000;9.194;2023-05-27T05:14:50;14.30;92.40
5476;DHT22;2760;50.000;9.194;2023-05-27T05:17:18;14.40;92.40
5476;DHT22;2760;50.000;9.194;2023-05-27T05:19:52;14.50;92.30
5476;DHT22;2760;50.000;9.194;2023-05-27T05:22:19;14.60;92.30
5476;DHT22;2760;50.000;9.194;2023-05-27T05:24:49;14.80;91.90
5476;DHT22;2760;50.000;9.194;2023-05-27T05:27:18;15.30;92.60
5476;DHT22;2760;50.000;9.194;2023-05-27T05:29:46;15.10;92.40
5476;DHT22;2760;50.000;9.194;2023-05-27T05:32:13;15.20;92.10
5476;DHT22;2760;50.000;9.194;2023-05-27T05:34:40;15.40;92.10
5476;DHT22;2760;50.000;9.194;2023-05-27T05:37:11;15.50;92.10
5476;DHT22;2760;50.000;9.194;2023-05-27T05:39:40;15.40;91.70
5476;DHT22;2760;50.000;9.194;2023-05-27T05:42:07;15.30;92.00
5476;DHT22;2760;50.000;9.194;2023-05-27T05:44:35;15.40;91.50
5476;DHT22;2760;50.000;9.194;2023-05-27T05:47:02;15.60;91.30
5476;DHT22;2760;50.000;9.194;2023-05-27T05:49:30;15.60;91.20
5476;DHT22;2760;50.000;9.194;2023-05-27T05:51:59;15.60;91.60
5476;DHT22;2760;50.000;9.194;2023-05-27T05:54:27;15.60;91.70
5476;DHT22;2760;50.000;9.194;2023-05-27T05:56:59;15.80;91.30
5476;DHT22;2760;50.000;9.194;2023-05-27T05:59:27;15.60;91.40
5476;DHT22;2760;50.000;9.194;2023-05-27T06:01:56;15.90;91.60
5476;DHT22;2760;50.000;9.194;2023-05-27T06:04:26;16.00;91.50
5476;DHT22;2760;50.000;9.194;2023-05-27T06:06:53;16.40;90.70
5476;DHT22;2760;50.000;9.194;2023-05-27T06:09:57;16.30;91.10
5476;DHT22;2760;50.000;9.194;2023-05-27T06:12:33;16.60;90.90
5476;DHT22;2760;50.000;9.194;2023-05-27T06:15:01;16.40;91.20
5476;DHT22;2760;50.000;9.194;2023-05-27T06:17:36;16.60;91.00
5476;DHT22;2760;50.000;9.194;2023-05-27T06:20:04;16.60;90.70
5476;DHT22;2760;50.000;9.194;2023-05-27T06:22:33;16.50;90.60
5476;DHT22;2760;50.000;9.194;2023-05-27T06:25:20;16.50;90.80
5476;DHT22;2760;50.000;9.194;2023-05-27T06:27:56;16.80;90.60
5476;DHT22;2760;50.000;9.194;2023-05-27T06:30:23;16.80;90.80
5476;DHT22;2760;50.000;9.194;2023-05-27T06:32:52;18.00;91.00
5476;DHT22;2760;50.000;9.194;2023-05-27T06:35:22;17.10;90.60
5476;DHT22;2760;50.000;9.194;2023-05-27T06:37:50;17.10;90.60
5476;DHT22;2760;50.000;9.194;2023-05-27T06:40:19;17.40;90.40
5476;DHT22;2760;50.000;9.194;2023-05-27T06:42:47;17.30;90.20
5476;DHT22;2760;50.000;9.194;2023-05-27T06:45:34;17.60;90.10
5476;DHT22;2760;50.000;9.194;2023-05-27T06:48:20;17.50;89.80
5476;DHT22;2760;50.000;9.194;2023-05-27T06:50:48;17.50;90.20
5476;DHT22;2760;50.000;9.194;2023-05-27T06:53:17;17.70;90.30
5476;DHT22;2760;50.000;9.194;2023-05-27T06:56:02;16.20;88.30
5476;DHT22;2760;50.000;9.194;2023-05-27T06:58:30;17.90;90.00
5476;DHT22;2760;50.000;9.194;2023-05-27T07:01:01;18.00;89.30
5476;DHT22;2760;50.000;9.194;2023-05-27T07:03:31;18.10;89.10
5476;DHT22;2760;50.000;9.194;2023-05-27T07:05:59;17.80;89.40
5476;DHT22;2760;50.000;9.194;2023-05-27T07:08:46;18.00;88.50
5476;DHT22;2760;50.000;9.194;2023-05-27T07:11:21;18.10;89.10
5476;DHT22;2760;50.000;9.194;2023-05-27T07:13:56;18.10;89.20
5476;DHT22;2760;50.000;9.194;2023-05-27T07:16:27;17.90;89.00
5476;DHT22;2760;50.000;9.194;2023-05-27T07:18:55;18.50;88.40
5476;DHT22;2760;50.000;9.194;2023-05-27T07:21:23;18.50;87.90
5476;DHT22;2760;50.000;9.194;2023-05-27T07:23:50;18.60;87.80
5476;DHT22;2760;50.000;9.194;2023-05-27T07:26:31;18.80;87.60
5476;DHT22;2760;50.000;9.194;2023-05-27T07:28:59;18.90;87.20
5476;DHT22;2760;50.000;9.194;2023-05-27T07:31:45;19.10;87.10
5476;DHT22;2760;50.000;9.194;2023-05-27T07:34:15;19.60;87.20
5476;DHT22;2760;50.000;9.194;2023-05-27T07:36:44;19.40;86.30
5476;DHT22;2760;50.000;9.194;2023-05-27T07:39:12;19.40;86.10
5476;DHT22;2760;50.000;9.194;2023-05-27T07:41:44;17.90;84.40
5476;DHT22;2760;50.000;9.194;2023-05-27T07:44:15;19.70;85.60
5476;DHT22;2760;50.000;9.194;2023-05-27T07:47:07;19.50;85.60
5476;DHT22;2760;50.000;9.194;2023-05-27T07:49:46;20.10;86.70
5476;DHT22;2760;50.000;9.194;2023-05-27T07:52:33;20.00;85.10
5476;DHT22;2760;50.000;9.194;2023-05-27T07:55:26;20.00;85.00
5476;DHT22;2760;50.000;9.194;2023-05-27T07:58:00;20.10;85.00
5476;DHT22;2760;50.000;9.194;2023-05-27T08:00:39;20.30;84.80
5476;DHT22;2760;50.000;9.194;2023-05-27T08:03:07;20.50;85.00
5476;DHT22;2760;50.000;9.194;2023-05-27T08:05:55;20.70;84.70
5476;DHT22;2760;50.000;9.194;2023-05-27T08:08:36;20.40;84.20
5476;DHT22;2760;50.000;9.194;2023-05-27T08:11:23;20.10;84.10
5476;DHT22;2760;50.000;9.194;2023-05-27T08:13:55;20.90;84.40
5476;DHT22;2760;50.000;9.194;2023-05-27T08:16:44;21.30;83.40
5476;DHT22;2760;50.000;9.194;2023-05-27T08:19:20;21.40;84.50
5476;DHT22;2760;50.000;9.194;2023-05-27T08:22:12;21.70;82.60
5476;DHT22;2760;50.000;9.194;2023-05-27T08:25:11;21.50;82.00
5476;DHT22;2760;50.000;9.194;2023-05-27T08:27:48;21.90;82.50
5476;DHT22;2760;50.000;9.194;2023-05-27T08:30:30;21.90;82.10
5476;DHT22;2760;50.000;9.194;2023-05-27T08:33:06;22.00;83.20
5476;DHT22;2760;50.000;9.194;2023-05-27T08:35:33;21.80;81.50
5476;DHT22;2760;50.000;9.194;2023-05-27T08:38:00;22.10;80.60
5476;DHT22;2760;50.000;9.194;2023-05-27T08:40:32;22.00;82.30
5476;DHT22;2760;50.000;9.194;2023-05-27T08:43:00;21.80;78.30
5476;DHT22;2760;50.000;9.194;2023-05-27T08:45:29;22.70;80.10
5476;DHT22;2760;50.000;9.194;2023-05-27T08:47:57;22.50;81.00
5476;DHT22;2760;50.000;9.194;2023-05-27T08:50:32;22.60;80.00
5476;DHT22;2760;50.000;9.194;2023-05-27T08:53:02;22.50;79.80
5476;DHT22;2760;50.000;9.194;2023-05-27T08:55:37;22.70;80.30
5476;DHT22;2760;50.000;9.194;2023-05-27T08:58:09;22.60;79.40
5476;DHT22;2760;50.000;9.194;2023-05-27T09:00:46;22.90;79.30
5476;DHT22;2760;50.000;9.194;2023-05-27T09:03:18;23.00;78.40
5476;DHT22;2760;50.000;9.194;2023-05-27T09:05:46;22.90;78.70
5476;DHT22;2760;50.000;9.194;2023-05-27T09:08:13;23.10;78.80
5476;DHT22;2760;50.000;9.194;2023-05-27T09:10:41;23.30;77.70
5476;DHT22;2760;50.000;9.194;2023-05-27T09:13:09;21.90;76.50
5476;DHT22;2760;50.000;9.194;2023-05-27T09:15:36;23.50;79.80
5476;DHT22;2760;50.000;9.194;2023-05-27T09:18:06;23.70;77.00
5476;DHT22;2760;50.000;9.194;2023-05-27T09:20:35;23.70;76.90
5476;DHT22;2760;50.000;9.194;2023-05-27T09:23:03;23.90;77.90
5476;DHT22;2760;50.000;9.194;2023-05-27T09:25:31;23.40;78.00
5476;DHT22;2760;50.000;9.194;2023-05-27T09:27:58;23.90;78.30
5476;DHT22;2760;50.000;9.194;2023-05-27T09:30:29;23.80;78.30
5476;DHT22;2760;50.000;9.194;2023-05-27T09:33:01;23.80;79.60
5476;DHT22;2760;50.000;9.194;2023-05-27T09:35:30;24.30;76.20
5476;DHT22;2760;50.000;9.194;2023-05-27T09:38:05;24.30;76.00
5476;DHT22;2760;50.000;9.194;2023-05-27T09:40:35;24.00;76.10
5476;DHT22;2760;50.000;9.194;2023-05-27T09:43:03;23.60;77.70
5476;DHT22;2760;50.000;9.194;2023-05-27T09:45:30;23.90;76.80
5476;DHT22;2760;50.000;9.194;2023-05-27T09:48:00;23.90;75.30
5476;DHT22;2760;50.000;9.194;2023-05-27T09:50:30;24.20;76.40
5476;DHT22;2760;50.000;9.194;2023-05-27T09:52:59;24.20;76.30
5476;DHT22;2760;50.000;9.194;2023-05-27T09:55:28;25.50;78.30
5476;DHT22;2760;50.000;9.194;2023-05-27T09:57:56;24.50;76.20
5476;DHT22;2760;50.000;9.194;2023-05-27T10:00:26;24.40;76.20
5476;DHT22;2760;50.000;9.194;2023-05-27T10:02:55;24.20;74.90
5476;DHT22;2760;50.000;9.194;2023-05-27T10:05:24;24.10;75.90
5476;DHT22;2760;50.000;9.194;2023-05-27T10:07:58;24.20;76.10
5476;DHT22;2760;50.000;9.194;2023-05-27T10:10:27;24.80;75.80
5476;DHT22;2760;50.000;9.194;2023-05-27T10:12:56;24.70;75.80
5476;DHT22;2760;50.000;9.194;2023-05-27T10:15:28;24.30;75.00
5476;DHT22;2760;50.000;9.194;2023-05-27T10:17:57;24.20;76.20
5476;DHT22;2760;50.000;9.194;2023-05-27T10:20:30;24.40;75.60
5476;DHT22;2760;50.000;9.194;2023-05-27T10:23:09;24.90;75.50
5476;DHT22;2760;50.000;9.194;2023-05-27T10:25:37;24.70;75.10
5476;DHT22;2760;50.000;9.194;2023-05-27T10:28:08;24.90;73.60
5476;DHT22;2760;50.000;9.194;2023-05-27T10:30:43;24.80;73.30
5476;DHT22;2760;50.000;9.194;2023-05-27T10:33:28;25.00;75.10
5476;DHT22;2760;50.000;9.194;2023-05-27T10:36:04;25.00;74.70
5476;DHT22;2760;50.000;9.194;2023-05-27T10:38:35;25.20;73.60
5476;DHT22;2760;50.000;9.194;2023-05-27T10:41:04;24.40;74.60
5476;DHT22;2760;50.000;9.194;2023-05-27T10:43:32;25.20;75.10
5476;DHT22;2760;50.000;9.194;2023-05-27T10:46:06;25.30;74.60
5476;DHT22;2760;50.000;9.194;2023-05-27T10:48:36;25.60;73.30
5476;DHT22;2760;50.000;9.194;2023-05-27T10:51:07;25.50;73.30
5476;DHT22;2760;50.000;9.194;2023-05-27T10:53:37;25.70;72.00
5476;DHT22;2760;50.000;9.194;2023-05-27T10:56:05;25.60;72.70
5476;DHT22;2760;50.000;9.194;2023-05-27T10:58:35;25.40;71.00
5476;DHT22;2760;50.000;9.194;2023-05-27T11:01:08;25.30;73.50
5476;DHT22;2760;50.000;9.194;2023-05-27T11:03:42;25.60;71.80
5476;DHT22;2760;50.000;9.194;2023-05-27T11:06:12;25.20;71.20
5476;DHT22;2760;50.000;9.194;2023-05-27T11:08:43;25.20;71.50
5476;DHT22;2760;50.000;9.194;2023-05-27T11:11:11;25.90;69.40
5476;DHT22;2760;50.000;9.194;2023-05-27T11:13:43;25.60;69.10
5476;DHT22;2760;50.000;9.194;2023-05-27T11:16:14;25.50;68.80
5476;DHT22;2760;50.000;9.194;2023-05-27T11:18:43;25.70;69.30
5476;DHT22;2760;50.000;9.194;2023-05-27T11:21:13;26.40;69.70
5476;DHT22;2760;50.000;9.194;2023-05-27T11:23:44;25.70;70.50
5476;DHT22;2760;50.000;9.194;2023-05-27T11:26:15;26.10;72.80
5476;DHT22;2760;50.000;9.194;2023-05-27T11:28:48;26.20;69.80
5476;DHT22;2760;50.000;9.194;2023-05-27T11:31:22;26.30;68.40
5476;DHT22;2760;50.000;9.194;2023-05-27T11:33:54;26.10;66.40
5476;DHT22;2760;50.000;9.194;2023-05-27T11:36:25;26.40;67.70
5476;DHT22;2760;50.000;9.194;2023-05-27T11:38:55;26.20;68.00
5476;DHT22;2760;50.000;9.194;2023-05-27T11:41:32;26.60;65.70
5476;DHT22;2760;50.000;9.194;2023-05-27T11:44:01;25.80;64.90
5476;DHT22;2760;50.000;9.194;2023-05-27T11:46:34;26.30;67.30
5476;DHT22;2760;50.000;9.194;2023-05-27T11:49:03;26.30;68.20
5476;DHT22;2760;50.000;9.194;2023-05-27T11:51:36;26.30;65.50
5476;DHT22;2760;50.000;9.194;2023-05-27T11:54:06;26.70;65.60
5476;DHT22;2760;50.000;9.194;2023-05-27T11:56:33;26.70;65.00
5476;DHT22;2760;50.000;9.194;2023-05-27T11:59:02;25.20;63.10
5476;DHT22;2760;50.000;9.194;2023-05-27T12:01:31;26.70;67.60
5476;DHT22;2760;50.000;9.194;2023-05-27T12:04:03;26.70;67.60
5476;DHT22;2760;50.000;9.194;2023-05-27T12:06:58;25.70;64.40
5476;DHT22;2760;50.000;9.194;2023-05-27T12:09:46;26.50;64.90
5476;DHT22;2760;50.000;9.194;2023-05-27T12:12:45;26.90;63.00
5476;DHT22;2760;50.000;9.194;2023-05-27T12:15:27;26.90;61.20
5476;DHT22;2760;50.000;9.194;2023-05-27T12:20:25;27.40;62.80
5476;DHT22;2760;50.000;9.194;2023-05-27T12:23:08;27.00;64.60
5476;DHT22;2760;50.000;9.194;2023-05-27T12:25:38;26.40;63.00
5476;DHT22;2760;50.000;9.194;2023-05-27T12:28:08;26.30;64.20
5476;DHT22;2760;50.000;9.194;2023-05-27T12:30:51;26.80;62.40
5476;DHT22;2760;50.000;9.194;2023-05-27T12:33:34;24.40;61.50
5476;DHT22;2760;50.000;9.194;2023-05-27T12:36:17;26.10;63.50
5476;DHT22;2760;50.000;9.194;2023-05-27T12:38:45;27.10;66.00
5476;DHT22;2760;50.000;9.194;2023-05-27T12:41:14;27.30;62.10
5476;DHT22;2760;50.000;9.194;2023-05-27T12:43:42;26.80;62.70
5476;DHT22;2760;50.000;9.194;2023-05-27T12:46:10;26.90;63.20
5476;DHT22;2760;50.000;9.194;2023-05-27T12:48:38;26.80;64.20
5476;DHT22;2760;50.000;9.194;2023-05-27T12:51:05;27.10;61.70
5476;DHT22;2760;50.000;9.194;2023-05-27T12:56:04;27.10;62.60
5476;DHT22;2760;50.000;9.194;2023-05-27T12:58:34;27.00;64.10
5476;DHT22;2760;50.000;9.194;2023-05-27T13:01:02;26.90;62.50
5476;DHT22;2760;50.000;9.194;2023-05-27T13:03:30;27.10;63.20
5476;DHT22;2760;50.000;9.194;2023-05-27T13:06:00;26.20;63.80
5476;DHT22;2760;50.000;9.194;2023-05-27T13:08:28;26.90;65.00
5476;DHT22;2760;50.000;9.194;2023-05-27T13:10:56;26.80;64.50
5476;DHT22;2760;50.000;9.194;2023-05-27T13:13:24;26.70;64.40
5476;DHT22;2760;50.000;9.194;2023-05-27T13:15:56;25.80;64.10
5476;DHT22;2760;50.000;9.194;2023-05-27T13:18:23;27.00;63.70
5476;DHT22;2760;50.000;9.194;2023-05-27T13:20:50;27.00;62.50
5476;DHT22;2760;50.000;9.194;2023-05-27T13:23:18;27.20;62.80
5476;DHT22;2760;50.000;9.194;2023-05-27T13:28:13;26.40;60.20
5476;DHT22;2760;50.000;9.194;2023-05-27T13:30:41;26.70;62.80
5476;DHT22;2760;50.000;9.194;2023-05-27T13:33:10;27.00;59.70
5476;DHT22;2760;50.000;9.194;2023-05-27T13:35:37;27.20;59.80
5476;DHT22;2760;50.000;9.194;2023-05-27T13:38:04;26.70;58.90
5476;DHT22;2760;50.000;9.194;2023-05-27T13:40:37;26.70;60.40
5476;DHT22;2760;50.000;9.194;2023-05-27T13:45:33;26.70;60.60
5476;DHT22;2760;50.000;9.194;2023-05-27T13:48:01;26.70;62.20
5476;DHT22;2760;50.000;9.194;2023-05-27T13:50:30;27.10;62.00
5476;DHT22;2760;50.000;9.194;2023-05-27T13:52:58;26.80;62.90
5476;DHT22;2760;50.000;9.194;2023-05-27T13:55:26;26.50;64.50
5476;DHT22;2760;50.000;9.194;2023-05-27T13:57:54;26.60;63.70
5476;DHT22;2760;50.000;9.194;2023-05-27T14:00:21;26.20;62.70
5476;DHT22;2760;50.000;9.194;2023-05-27T14:02:49;25.90;62.60
5476;DHT22;2760;50.000;9.194;2023-05-27T14:05:32;26.30;62.10
5476;DHT22;2760;50.000;9.194;2023-05-27T14:08:01;26.30;61.40
5476;DHT22;2760;50.000;9.194;2023-05-27T14:10:29;26.50;62.50
5476;DHT22;2760;50.000;9.194;2023-05-27T14:12:57;26.10;60.10
5476;DHT22;2760;50.000;9.194;2023-05-27T14:15:29;26.00;60.20
5476;DHT22;2760;50.000;9.194;2023-05-27T14:17:58;26.00;61.30
5476;DHT22;2760;50.000;9.194;2023-05-27T14:20:27;25.70;62.10
5476;DHT22;2760;50.000;9.194;2023-05-27T14:22:56;25.80;60.80
5476;DHT22;2760;50.000;9.194;2023-05-27T14:25:24;26.30;60.20
5476;DHT22;2760;50.000;9.194;2023-05-27T14:27:52;26.10;61.50
5476;DHT22;2760;50.000;9.194;2023-05-27T14:30:22;26.30;62.10
5476;DHT22;2760;50.000;9.194;2023-05-27T14:32:50;26.30;61.40
5476;DHT22;2760;50.000;9.194;2023-05-27T14:35:18;26.00;59.50
5476;DHT22;2760;50.000;9.194;2023-05-27T14:37:46;25.80;58.20
5476;DHT22;2760;50.000;9.194;2023-05-27T14:40:15;25.30;60.00
5476;DHT22;2760;50.000;9.194;2023-05-27T14:42:42;25.40;61.40
5476;DHT22;2760;50.000;9.194;2023-05-27T14:45:10;25.50;63.00
5476;DHT22;2760;50.000;9.194;2023-05-27T14:47:37;25.30;63.30
5476;DHT22;2760;50.000;9.194;2023-05-27T14:50:07;25.40;60.90
5476;DHT22;2760;50.000;9.194;2023-05-27T14:52:35;25.10;62.20
5476;DHT22;2760;50.000;9.194;2023-05-27T14:55:02;25.30;61.60
5476;DHT22;2760;50.000;9.194;2023-05-27T14:57:32;25.30;60.20
5476;DHT22;2760;50.000;9.194;2023-05-27T15:00:01;25.30;60.30
5476;DHT22;2760;50.000;9.194;2023-05-27T15:02:30;25.40;60.70
5476;DHT22;2760;50.000;9.194;2023-05-27T15:04:58;25.50;61.10
5476;DHT22;2760;50.000;9.194;2023-05-27T15:07:25;25.40;60.10
5476;DHT22;2760;50.000;9.194;2023-05-27T15:12:19;25.50;61.50
5476;DHT22;2760;50.000;9.194;2023-05-27T15:14:49;25.40;60.60
5476;DHT22;2760;50.000;9.194;2023-05-27T15:17:17;25.30;60.90
5476;DHT22;2760;50.000;9.194;2023-05-27T15:19:47;25.20;60.90
5476;DHT22;2760;50.000;9.194;2023-05-27T15:22:14;25.30;59.50
5476;DHT22;2760;50.000;9.194;2023-05-27T15:24:42;25.40;60.30
5476;DHT22;2760;50.000;9.194;2023-05-27T15:27:09;25.30;60.90
5476;DHT22;2760;50.000;9.194;2023-05-27T15:29:37;24.90;61.30
5476;DHT22;2760;50.000;9.194;2023-05-27T15:32:06;24.90;62.00
5476;DHT22;2760;50.000;9.194;2023-05-27T15:37:01;25.10;62.00
5476;DHT22;2760;50.000;9.194;2023-05-27T15:39:31;25.10;61.70
5476;DHT22;2760;50.000;9.194;2023-05-27T15:41:59;25.10;61.20
5476;DHT22;2760;50.000;9.194;2023-05-27T15:44:26;25.00;61.30
5476;DHT22;2760;50.000;9.194;2023-05-27T15:46:54;25.00;61.80
5476;DHT22;2760;50.000;9.194;2023-05-27T15:49:24;24.90;61.40
5476;DHT22;2760;50.000;9.194;2023-05-27T15:51:52;25.10;61.40
5476;DHT22;2760;50.000;9.194;2023-05-27T15:54:21;25.00;60.80
5476;DHT22;2760;50.000;9.194;2023-05-27T15:56:49;23.70;58.80
5476;DHT22;2760;50.000;9.194;2023-05-27T15:59:16;25.00;60.90
5476;DHT22;2760;50.000;9.194;2023-05-27T16:01:43;24.40;61.90
5476;DHT22;2760;50.000;9.194;2023-05-27T16:04:11;24.30;61.80
5476;DHT22;2760;50.000;9.194;2023-05-27T16:06:46;24.80;61.70
5476;DHT22;2760;50.000;9.194;2023-05-27T16:09:13;25.10;60.20
5476;DHT22;2760;50.000;9.194;2023-05-27T16:11:40;24.80;59.10
5476;DHT22;2760;50.000;9.194;2023-05-27T16:14:08;22.80;57.70
5476;DHT22;2760;50.000;9.194;2023-05-27T16:16:35;24.80;60.00
5476;DHT22;2760;50.000;9.194;2023-05-27T16:19:02;24.80;59.60
5476;DHT22;2760;50.000;9.194;2023-05-27T16:21:30;24.90;60.40
5476;DHT22;2760;50.000;9.194;2023-05-27T16:24:00;24.80;61.00
5476;DHT22;2760;50.000;9.194;2023-05-27T16:26:29;24.90;61.30
5476;DHT22;2760;50.000;9.194;2023-05-27T16:32:39;24.70;59.60
5476;DHT22;2760;50.000;9.194;2023-05-27T16:35:07;24.70;60.10
5476;DHT22;2760;50.000;9.194;2023-05-27T16:37:35;24.60;60.90
5476;DHT22;2760;50.000;9.194;2023-05-27T16:40:07;24.70;60.50
5476;DHT22;2760;50.000;9.194;2023-05-27T16:42:35;24.70;60.20
5476;DHT22;2760;50.000;9.194;2023-05-27T16:45:02;24.60;60.40
5476;DHT22;2760;50.000;9.194;2023-05-27T16:47:30;24.50;60.70
5476;DHT22;2760;50.000;9.194;2023-05-27T16:49:58;24.50;60.20
5476;DHT22;2760;50.000;9.194;2023-05-27T16:52:25;24.60;60.20
5476;DHT22;2760;50.000;9.194;2023-05-27T16:54:53;24.60;59.90
5476;DHT22;2760;50.000;9.194;2023-05-27T16:57:24;24.60;60.60
5476;DHT22;2760;50.000;9.194;2023-05-27T16:59:52;24.60;60.50
5476;DHT22;2760;50.000;9.194;2023-05-27T17:02:22;24.50;60.60
5476;DHT22;2760;50.000;9.194;2023-05-27T17:04:50;24.20;60.60
5476;DHT22;2760;50.000;9.194;2023-05-27T17:07:17;24.40;61.40
5476;DHT22;2760;50.000;9.194;2023-05-27T17:09:44;24.40;60.10
5476;DHT22;2760;50.000;9.194;2023-05-27T17:12:12;24.40;59.90
5476;DHT22;2760;50.000;9.194;2023-05-27T17:14:41;24.30;60.60
5476;DHT22;2760;50.000;9.194;2023-05-27T17:17:10;24.20;61.40
5476;DHT22;2760;50.000;9.194;2023-05-27T17:19:37;24.30;60.90
5476;DHT22;2760;50.000;9.194;2023-05-27T17:22:19;24.20;59.50
5476;DHT22;2760;50.000;9.194;2023-05-27T17:24:51;24.60;59.90
5476;DHT22;2760;50.000;9.194;2023-05-27T17:27:30;24.20;59.80
5476;DHT22;2760;50.000;9.194;2023-05-27T17:29:59;23.50;59.90
5476;DHT22;2760;50.000;9.194;2023-05-27T17:32:26;24.30;60.20
5476;DHT22;2760;50.000;9.194;2023-05-27T17:34:53;24.20;59.80
5476;DHT22;2760;50.000;9.194;2023-05-27T17:37:20;24.10;59.30
5476;DHT22;2760;50.000;9.194;2023-05-27T17:39:48;24.20;60.10